Time;durP1;ratioP1;P1;durP2;ratioP2;P2;SDS_P1;SDS_P2;PMS_P1;PMS_P2;Temp;Humidity;BMP_temperature;BMP_pressure;BME280_temperature;BME280_humidity;BME280_pressure;Samples;Min_cycle;Max_cycle;Signal;HPM_P1;HPM_P2
2021/05/28 00:01:12;;;;;;;2.50;2.30;;;;;;;11.01;85.13;97188.59;5091811;28;20217;-63
2021/05/28 00:03:37;;;;;;;2.40;2.20;;;;;;;11.12;84.86;97189.69;5101481;28;20672;-63
2021/05/28 00:06:03;;;;;;;2.70;2.50;;;;;;;10.97;86.29;97192.69;5101807;28;20511;-63
2021/05/28 00:08:28;;;;;;;2.70;2.50;;;;;;;10.72;88.02;97194.56;5109107;28;20180;-63
2021/05/28 00:10:53;;;;;;;3.00;2.80;;;;;;;10.79;88.48;97190.84;5094342;28;20573;-63
2021/05/28 00:13:20;;;;;;;3.50;3.20;;;;;;;10.64;90.48;97189.59;5103221;28;20176;-63
2021/05/28 00:15:45;;;;;;;4.03;3.63;;;;;;;10.68;91.13;97186.34;5098785;28;20205;-62
2021/05/28 00:18:11;;;;;;;4.30;3.90;;;;;;;10.65;92.18;97194.63;5105800;28;20508;-63
2021/05/28 00:20:36;;;;;;;4.27;3.80;;;;;;;10.40;93.48;97199.91;5100255;28;20175;-62
2021/05/28 00:23:02;;;;;;;5.00;4.57;;;;;;;10.33;95.19;97198.34;5091936;28;20299;-62
2021/05/28 00:25:29;;;;;;;5.13;4.10;;;;;;;10.31;95.81;97192.50;5102877;28;20243;-62
2021/05/28 00:27:54;;;;;;;5.10;4.67;;;;;;;10.39;96.05;97197.47;5106841;28;20204;-63
2021/05/28 00:30:20;;;;;;;6.77;5.17;;;;;;;10.19;98.36;97197.66;5098448;28;20538;-63
2021/05/28 00:32:45;;;;;;;5.93;4.40;;;;;;;10.30;97.60;97199.59;5114200;28;20178;-63
2021/05/28 00:35:11;;;;;;;6.70;4.73;;;;;;;10.19;99.11;97212.56;5107432;28;20176;-63
2021/05/28 00:37:36;;;;;;;5.90;5.07;;;;;;;10.23;98.92;97211.13;5090719;28;20204;-63
2021/05/28 00:40:02;;;;;;;5.60;5.00;;;;;;;10.18;99.47;97205.72;5099774;28;20191;-62
2021/05/28 00:42:28;;;;;;;6.53;5.70;;;;;;;10.33;99.13;97211.44;5098673;28;20200;-63
2021/05/28 00:44:53;;;;;;;5.60;5.13;;;;;;;10.26;99.72;97214.09;5097812;28;20322;-62
2021/05/28 00:47:18;;;;;;;6.10;5.50;;;;;;;10.00;100.00;97209.03;5095424;28;20211;-63
2021/05/28 00:49:44;;;;;;;7.67;5.87;;;;;;;10.09;100.00;97213.00;5105178;28;20188;-65
2021/05/28 00:52:12;;;;;;;5.93;5.40;;;;;;;10.03;100.00;97211.22;5107083;28;20234;-65
2021/05/28 00:54:37;;;;;;;8.17;6.57;;;;;;;10.12;100.00;97212.59;5104081;28;20184;-63
2021/05/28 00:57:03;;;;;;;6.13;5.53;;;;;;;10.25;100.00;97209.88;5107129;28;20286;-64
2021/05/28 00:59:29;;;;;;;6.47;5.80;;;;;;;10.39;99.85;97215.81;5092306;28;20228;-65
2021/05/28 01:01:55;;;;;;;6.77;5.70;;;;;;;10.38;99.20;97219.47;5093483;28;20208;-64
2021/05/28 01:04:21;;;;;;;6.60;5.27;;;;;;;10.33;100.00;97216.69;5093925;28;20177;-64
2021/05/28 01:06:46;;;;;;;6.43;4.97;;;;;;;10.43;99.59;97211.75;5093415;28;20218;-62
2021/05/28 01:09:12;;;;;;;6.20;5.60;;;;;;;10.38;98.97;97220.25;5093167;28;20168;-61
2021/05/28 01:11:38;;;;;;;5.90;5.37;;;;;;;10.46;98.57;97218.41;5093382;28;20508;-61
2021/05/28 01:14:04;;;;;;;5.57;5.13;;;;;;;10.39;98.82;97214.00;5093310;28;20177;-62
2021/05/28 01:16:30;;;;;;;7.07;5.73;;;;;;;10.35;98.89;97220.69;5093940;28;20253;-62
2021/05/28 01:18:57;;;;;;;6.47;5.73;;;;;;;10.39;98.19;97216.63;5093273;28;20579;-64
2021/05/28 01:21:23;;;;;;;5.90;5.30;;;;;;;10.40;97.72;97218.25;5093396;28;20173;-64
2021/05/28 01:23:48;;;;;;;5.73;5.23;;;;;;;10.29;99.09;97218.13;5092703;28;20226;-67
2021/05/28 01:26:14;;;;;;;6.97;5.20;;;;;;;10.33;98.92;97224.53;5093111;28;20292;-62
2021/05/28 01:28:40;;;;;;;5.67;4.93;;;;;;;10.37;98.12;97221.28;5093386;28;20185;-63
2021/05/28 01:31:06;;;;;;;5.73;5.10;;;;;;;10.39;98.04;97219.25;5092499;28;20180;-66
2021/05/28 01:33:31;;;;;;;5.20;4.70;;;;;;;10.68;97.15;97225.66;5092454;28;20229;-64
2021/05/28 01:35:58;;;;;;;6.13;5.20;;;;;;;10.76;96.11;97225.34;5091645;28;20168;-63
2021/05/28 01:38:25;;;;;;;5.30;4.80;;;;;;;10.70;95.72;97228.84;5093322;28;20172;-61
2021/05/28 01:40:53;;;;;;;5.40;4.83;;;;;;;10.76;95.45;97229.78;5093448;28;20173;-67
2021/05/28 01:43:19;;;;;;;7.47;4.57;;;;;;;10.71;94.82;97212.09;5093117;28;20197;-62
2021/05/28 01:45:45;;;;;;;5.33;4.67;;;;;;;10.69;94.72;97221.22;5092802;28;20184;-64
2021/05/28 01:48:10;;;;;;;4.67;4.20;;;;;;;10.78;94.81;97210.22;5092265;28;20180;-63
2021/05/28 01:50:45;;;;;;;4.33;3.93;;;;;;;10.71;94.71;97217.34;5093051;28;20203;-61
2021/05/28 01:53:16;;;;;;;4.83;4.23;;;;;;;10.72;94.90;97208.47;5092438;28;20250;-62
2021/05/28 01:55:42;;;;;;;4.93;4.00;;;;;;;10.70;94.40;97215.72;5092661;28;20183;-61
2021/05/28 01:58:12;;;;;;;6.17;4.67;;;;;;;10.73;94.08;97206.66;5092269;28;20232;-62
2021/05/28 02:00:39;;;;;;;4.40;3.83;;;;;;;10.80;93.33;97213.44;5093334;28;20633;-60
2021/05/28 02:03:05;;;;;;;4.40;3.93;;;;;;;10.87;92.60;97213.34;5100700;28;20253;-61
2021/05/28 02:05:35;;;;;;;6.73;4.50;;;;;;;10.93;91.66;97209.06;5109491;28;20171;-63
2021/05/28 02:08:02;;;;;;;3.77;3.20;;;;;;;10.94;91.28;97213.28;5106903;28;20200;-61
2021/05/28 02:10:29;;;;;;;4.00;3.53;;;;;;;10.96;90.54;97219.94;5101378;28;20172;-62
2021/05/28 02:12:55;;;;;;;3.60;3.30;;;;;;;10.99;89.23;97216.06;5102828;28;20175;-61
2021/05/28 02:15:22;;;;;;;3.33;2.87;;;;;;;10.98;88.01;97214.47;5096648;28;20247;-61
2021/05/28 02:17:49;;;;;;;2.73;2.53;;;;;;;11.10;87.19;97212.69;5109452;28;20265;-62
2021/05/28 02:20:15;;;;;;;3.13;2.83;;;;;;;11.04;86.78;97213.56;5099615;28;20168;-62
2021/05/28 02:22:40;;;;;;;4.40;3.20;;;;;;;11.04;86.32;97209.13;5104228;28;20743;-62
2021/05/28 02:25:06;;;;;;;2.73;2.50;;;;;;;11.16;86.13;97211.84;5103469;28;20659;-62
2021/05/28 02:27:33;;;;;;;2.80;2.60;;;;;;;11.15;86.03;97211.03;5094585;28;20238;-63
2021/05/28 02:29:59;;;;;;;3.10;2.80;;;;;;;11.20;85.73;97213.78;5104825;28;20508;-61
2021/05/28 02:32:25;;;;;;;3.23;2.67;;;;;;;11.20;86.06;97207.78;5103954;28;20160;-64
2021/05/28 02:34:50;;;;;;;2.93;2.73;;;;;;;11.20;85.89;97203.28;5104668;28;20180;-67
2021/05/28 02:37:16;;;;;;;2.67;2.47;;;;;;;11.28;85.02;97202.22;5110425;28;20680;-64
2021/05/28 02:39:41;;;;;;;4.23;2.70;;;;;;;11.34;84.60;97203.16;5101194;28;20602;-63
2021/05/28 02:42:07;;;;;;;4.30;2.77;;;;;;;11.41;83.75;97206.50;5105241;28;20652;-63
2021/05/28 02:44:32;;;;;;;3.07;2.67;;;;;;;11.42;82.40;97208.09;5110167;28;20179;-63
2021/05/28 02:46:58;;;;;;;2.53;2.33;;;;;;;11.06;83.42;97209.72;5102432;28;20191;-62
2021/05/28 02:49:23;;;;;;;4.00;2.70;;;;;;;11.09;83.82;97211.91;5103424;28;20620;-63
2021/05/28 02:51:49;;;;;;;3.27;2.80;;;;;;;11.14;84.44;97201.56;5093534;28;20679;-63
2021/05/28 02:54:14;;;;;;;2.63;2.37;;;;;;;11.19;84.04;97204.34;5095606;28;20233;-66
2021/05/28 02:56:40;;;;;;;2.73;2.50;;;;;;;11.07;84.94;97205.28;5103859;28;20688;-64
2021/05/28 02:59:05;;;;;;;3.97;2.73;;;;;;;11.14;84.81;97209.44;5106107;28;20230;-63
2021/05/28 03:01:31;;;;;;;3.13;2.77;;;;;;;11.14;84.39;97208.66;5112607;28;20244;-65
2021/05/28 03:03:56;;;;;;;3.07;2.63;;;;;;;11.07;84.85;97207.91;5111619;28;20175;-65
2021/05/28 03:06:21;;;;;;;3.43;2.77;;;;;;;11.19;84.33;97211.41;5111509;28;20664;-66
2021/05/28 03:08:47;;;;;;;2.77;2.43;;;;;;;11.14;84.30;97212.06;5111709;28;20168;-64
2021/05/28 03:11:12;;;;;;;2.20;2.10;;;;;;;11.02;85.14;97207.75;5110397;28;20359;-65
2021/05/28 03:13:38;;;;;;;2.60;2.40;;;;;;;10.94;85.66;97210.66;5111625;28;20173;-64
2021/05/28 03:16:04;;;;;;;3.53;2.80;;;;;;;11.02;85.26;97213.81;5111034;28;20217;-64
2021/05/28 03:18:46;;;;;;;2.70;2.50;;;;;;;10.90;85.95;97215.56;5111128;28;20531;-64
2021/05/28 03:24:03;;;;;;;2.87;2.40;;;;;;;10.65;86.80;97220.81;5081231;28;20207;-64
2021/05/28 03:26:29;;;;;;;2.73;2.53;;;;;;;10.67;86.49;97221.41;5111165;28;20231;-64
2021/05/28 03:28:56;;;;;;;3.23;2.93;;;;;;;10.72;86.17;97218.94;5110764;28;20651;-61
2021/05/28 03:31:22;;;;;;;3.33;2.60;;;;;;;10.68;86.77;97224.84;5111637;28;20660;-64
2021/05/28 03:33:49;;;;;;;3.33;2.70;;;;;;;10.50;87.90;97217.75;5112228;28;20197;-64
2021/05/28 03:36:15;;;;;;;2.53;2.33;;;;;;;10.68;87.44;97224.84;5110620;28;20200;-64
2021/05/28 03:38:41;;;;;;;5.80;2.33;;;;;;;10.80;86.23;97216.06;5111365;28;20215;-64
2021/05/28 03:41:07;;;;;;;2.63;2.43;;;;;;;10.71;86.42;97213.91;5110709;28;20175;-65
2021/05/28 03:43:34;;;;;;;2.43;2.27;;;;;;;10.64;86.18;97208.75;5111081;28;20204;-68
2021/05/28 03:46:00;;;;;;;2.67;2.47;;;;;;;10.79;85.50;97211.84;5110202;28;20670;-64
2021/05/28 03:48:26;;;;;;;2.70;2.50;;;;;;;10.64;86.20;97218.44;5111225;28;20191;-64
2021/05/28 03:50:51;;;;;;;2.97;2.77;;;;;;;10.53;86.68;97219.94;5111237;28;20179;-64
2021/05/28 03:53:17;;;;;;;2.50;2.30;;;;;;;10.74;86.38;97221.38;5110948;28;20168;-64
2021/05/28 03:55:42;;;;;;;3.00;2.47;;;;;;;10.80;85.77;97218.69;5112050;28;20216;-64
2021/05/28 03:58:07;;;;;;;2.70;2.50;;;;;;;10.59;86.72;97228.78;5109924;28;20231;-63
2021/05/28 04:00:33;;;;;;;2.20;2.10;;;;;;;10.72;85.77;97226.81;5114930;28;20191;-64
2021/05/28 04:02:59;;;;;;;2.30;2.10;;;;;;;10.89;85.03;97219.19;5114513;28;20561;-63
2021/05/28 04:05:25;;;;;;;2.70;2.40;;;;;;;10.77;85.23;97216.47;5115949;28;20179;-63
2021/05/28 04:07:50;;;;;;;2.60;2.20;;;;;;;10.81;85.58;97214.25;5115521;28;20191;-62
2021/05/28 04:10:16;;;;;;;2.60;2.40;;;;;;;10.68;85.68;97216.97;5113979;28;20176;-62
2021/05/28 04:12:42;;;;;;;2.93;2.40;;;;;;;10.60;86.21;97217.25;5114488;28;20168;-62
2021/05/28 04:15:09;;;;;;;2.80;2.60;;;;;;;10.69;85.19;97208.91;5114849;28;20175;-62
2021/05/28 04:17:35;;;;;;;2.90;2.57;;;;;;;10.70;84.48;97205.25;5114844;28;20199;-62
2021/05/28 04:20:02;;;;;;;2.47;2.27;;;;;;;10.65;84.27;97207.72;5114316;28;20531;-64
2021/05/28 04:22:27;;;;;;;2.60;2.40;;;;;;;10.60;84.50;97202.31;5114620;28;20203;-63
2021/05/28 04:24:52;;;;;;;2.40;2.30;;;;;;;10.69;84.10;97205.47;5115050;28;20172;-64
2021/05/28 04:27:18;;;;;;;2.47;1.90;;;;;;;10.69;83.83;97206.28;5114511;28;20278;-63
2021/05/28 04:29:44;;;;;;;2.53;2.33;;;;;;;10.56;84.28;97206.41;5115019;28;20175;-64
2021/05/28 04:32:09;;;;;;;4.00;2.77;;;;;;;10.74;83.95;97208.25;5114176;28;20636;-65
2021/05/28 04:34:35;;;;;;;3.20;2.77;;;;;;;11.09;82.09;97217.16;5114542;28;20204;-66
2021/05/28 04:37:01;;;;;;;3.07;2.40;;;;;;;11.06;81.38;97211.53;5114012;28;20742;-66
2021/05/28 04:39:27;;;;;;;2.90;2.60;;;;;;;11.14;80.71;97219.94;5114799;28;20258;-64
2021/05/28 04:41:56;;;;;;;4.37;2.57;;;;;;;10.70;82.94;97220.19;5114653;28;20648;-68
2021/05/28 04:44:21;;;;;;;4.77;3.00;;;;;;;10.79;83.55;97216.28;5114313;28;20203;-66
2021/05/28 04:46:47;;;;;;;3.37;3.07;;;;;;;11.13;82.29;97223.56;5098965;28;20291;-65
2021/05/28 04:49:13;;;;;;;3.03;2.73;;;;;;;11.24;81.94;97219.41;5113752;28;20256;-65
2021/05/28 04:51:39;;;;;;;3.00;2.73;;;;;;;11.38;81.21;97227.91;5114634;28;20240;-65
2021/05/28 04:54:05;;;;;;;4.70;3.30;;;;;;;11.49;81.00;97227.19;5113611;28;20203;-64
2021/05/28 04:56:30;;;;;;;3.40;2.53;;;;;;;11.59;80.35;97223.00;5114178;28;20207;-64
2021/05/28 04:58:59;;;;;;;2.87;2.50;;;;;;;11.77;79.12;97231.91;5096526;28;20259;-63
2021/05/28 05:01:24;;;;;;;3.00;2.80;;;;;;;11.90;78.24;97234.34;5090401;28;20181;-64
2021/05/28 05:03:50;;;;;;;3.53;3.23;;;;;;;11.96;77.85;97233.47;5089000;28;20260;-64
2021/05/28 05:06:16;;;;;;;6.00;3.20;;;;;;;11.94;77.30;97238.94;5092927;28;20604;-64
2021/05/28 05:08:41;;;;;;;3.20;2.80;;;;;;;11.83;77.66;97244.13;5075302;28;20263;-66
2021/05/28 05:11:06;;;;;;;3.87;3.00;;;;;;;11.88;77.50;97244.28;5092230;28;20176;-64
2021/05/28 05:13:32;;;;;;;3.67;3.00;;;;;;;11.89;77.33;97248.50;5092946;28;20642;-64
2021/05/28 05:15:57;;;;;;;6.33;2.90;;;;;;;11.36;78.86;97246.53;5093131;28;20700;-63
2021/05/28 05:18:26;;;;;;;3.60;3.03;;;;;;;11.36;78.85;97248.34;5092964;28;20164;-64
2021/05/28 05:20:52;;;;;;;3.53;3.23;;;;;;;11.29;79.52;97251.06;5093323;28;20165;-64
2021/05/28 05:23:18;;;;;;;4.88;3.40;;;;;;;11.33;80.13;97246.97;5091719;28;20432;-64
2021/05/28 05:25:44;;;;;;;3.65;3.30;;;;;;;11.32;79.31;97249.78;5092842;28;21153;-65
2021/05/28 05:28:11;;;;;;;4.70;3.13;;;;;;;11.20;79.85;97253.16;5092202;28;20205;-64
2021/05/28 05:30:36;;;;;;;3.90;3.50;;;;;;;11.29;79.89;97247.63;5074861;28;20315;-64
2021/05/28 05:33:02;;;;;;;5.07;3.73;;;;;;;11.13;80.42;97247.19;5092293;28;20264;-66
2021/05/28 05:35:28;;;;;;;3.87;3.40;;;;;;;11.21;80.07;97259.19;5092327;28;20252;-65
2021/05/28 05:37:53;;;;;;;4.40;3.37;;;;;;;11.47;79.65;97251.03;5093042;28;20211;-65
2021/05/28 05:40:19;;;;;;;4.47;3.10;;;;;;;11.76;78.50;97246.06;5091946;28;20434;-66
2021/05/28 05:42:45;;;;;;;5.50;3.43;;;;;;;11.81;78.24;97254.88;5092895;28;20203;-67
2021/05/28 05:45:11;;;;;;;4.43;3.67;;;;;;;11.79;77.04;97258.75;5091914;28;20192;-66
2021/05/28 05:47:37;;;;;;;6.23;3.70;;;;;;;11.51;78.48;97254.03;5093190;28;20271;-65
2021/05/28 05:50:03;;;;;;;4.07;3.50;;;;;;;11.48;79.28;97254.47;5091857;28;20229;-66
2021/05/28 05:52:29;;;;;;;4.27;3.53;;;;;;;11.73;78.26;97259.59;5092700;28;20644;-65
2021/05/28 05:54:55;;;;;;;4.60;3.50;;;;;;;11.44;78.64;97264.59;5092668;28;20326;-63
2021/05/28 05:57:21;;;;;;;4.20;3.40;;;;;;;10.98;80.67;97262.47;5089624;28;20283;-63
2021/05/28 05:59:46;;;;;;;5.33;3.80;;;;;;;11.26;79.89;97273.25;5092872;28;20177;-64
2021/05/28 06:02:12;;;;;;;3.77;3.47;;;;;;;11.16;79.41;97278.22;5092090;28;20548;-64
2021/05/28 06:04:37;;;;;;;4.97;3.70;;;;;;;11.26;79.45;97281.13;5092423;28;20548;-64
2021/05/28 06:07:03;;;;;;;4.77;3.70;;;;;;;11.60;79.00;97281.56;5091333;28;20199;-67
2021/05/28 06:09:28;;;;;;;4.67;3.10;;;;;;;11.70;78.16;97283.69;5092427;28;20184;-63
2021/05/28 06:11:55;;;;;;;4.93;3.87;;;;;;;11.82;77.73;97290.59;5091691;28;20184;-65
2021/05/28 06:14:21;;;;;;;3.53;3.20;;;;;;;11.73;77.77;97285.84;5091337;28;20422;-65
2021/05/28 06:16:47;;;;;;;5.83;3.63;;;;;;;12.11;76.92;97285.59;5092023;28;20200;-65
2021/05/28 06:19:12;;;;;;;3.67;3.37;;;;;;;12.44;75.96;97283.28;5091011;28;20168;-64
2021/05/28 06:21:37;;;;;;;6.13;3.80;;;;;;;12.69;74.45;97275.22;5091978;28;20180;-68
2021/05/28 06:24:03;;;;;;;5.73;3.67;;;;;;;12.88;73.27;97284.56;5091187;28;20544;-65
2021/05/28 06:26:30;;;;;;;4.50;3.40;;;;;;;13.05;73.09;97280.22;5092191;28;20300;-65
2021/05/28 06:28:55;;;;;;;4.90;3.57;;;;;;;12.73;74.17;97290.31;5091730;28;20177;-65
2021/05/28 06:31:21;;;;;;;5.00;3.83;;;;;;;12.63;73.99;97284.81;5090356;28;20177;-64
2021/05/28 06:33:46;;;;;;;4.87;3.77;;;;;;;12.29;75.83;97285.53;5091796;28;20606;-65
2021/05/28 06:36:12;;;;;;;6.50;4.00;;;;;;;12.37;75.29;97287.84;5090497;28;20200;-69
2021/05/28 06:38:37;;;;;;;4.73;3.90;;;;;;;12.00;77.07;97281.91;5090900;28;20724;-68
2021/05/28 06:41:03;;;;;;;5.80;4.20;;;;;;;11.76;78.88;97295.97;5090327;28;20179;-68
2021/05/28 06:43:28;;;;;;;4.73;3.90;;;;;;;12.12;77.24;97289.81;5091277;28;20546;-65
2021/05/28 06:45:54;;;;;;;5.37;4.57;;;;;;;12.32;75.91;97299.03;5090939;28;20215;-64
2021/05/28 06:48:19;;;;;;;6.73;4.73;;;;;;;12.36;75.42;97294.94;5089879;28;20848;-64
2021/05/28 06:50:45;;;;;;;4.77;4.03;;;;;;;12.16;77.20;97294.41;5091301;28;20176;-64
2021/05/28 06:53:11;;;;;;;5.37;4.20;;;;;;;12.41;75.82;97294.25;5090606;28;20540;-64
2021/05/28 06:55:38;;;;;;;5.37;4.37;;;;;;;12.48;75.65;97300.22;5091233;28;20212;-64
2021/05/28 06:58:04;;;;;;;4.33;3.93;;;;;;;12.73;74.44;97292.13;5088171;28;20236;-64
2021/05/28 07:00:30;;;;;;;5.03;4.00;;;;;;;12.59;75.39;97299.44;5087682;28;20188;-64
2021/05/28 07:02:56;;;;;;;4.87;4.17;;;;;;;12.58;74.68;97302.28;5091249;28;20200;-64
2021/05/28 07:05:27;;;;;;;5.33;4.60;;;;;;;12.68;74.08;97294.63;5090285;28;20805;-64
2021/05/28 07:07:53;;;;;;;5.23;4.10;;;;;;;12.71;74.17;97296.81;5090762;28;20224;-64
2021/05/28 07:10:19;;;;;;;6.27;4.20;;;;;;;12.99;73.41;97302.19;5089500;28;20204;-64
2021/05/28 07:12:45;;;;;;;4.87;3.87;;;;;;;13.43;72.18;97307.94;5090938;28;20255;-64
2021/05/28 07:15:11;;;;;;;4.17;3.50;;;;;;;13.96;69.60;97312.97;5090036;28;20169;-63
2021/05/28 07:17:37;;;;;;;5.80;3.90;;;;;;;13.99;69.51;97315.09;5091062;28;20200;-63
2021/05/28 07:20:05;;;;;;;5.50;3.87;;;;;;;13.29;71.38;97317.91;5090991;28;20277;-62
2021/05/28 07:22:30;;;;;;;3.87;3.40;;;;;;;13.19;71.99;97322.97;5091113;28;20215;-63
2021/05/28 07:24:56;;;;;;;5.93;3.83;;;;;;;13.29;71.94;97320.53;5090635;28;20169;-64
2021/05/28 07:27:22;;;;;;;5.83;3.30;;;;;;;13.72;70.03;97318.28;5089886;28;20854;-63
2021/05/28 07:29:47;;;;;;;4.73;3.40;;;;;;;13.71;69.34;97323.78;5090733;28;20177;-63
2021/05/28 07:32:13;;;;;;;5.43;3.93;;;;;;;13.68;69.75;97316.34;5089219;28;20172;-62
2021/05/28 07:34:39;;;;;;;7.00;3.50;;;;;;;14.12;67.79;97317.47;5090190;28;20195;-62
2021/05/28 07:37:05;;;;;;;5.70;4.03;;;;;;;14.07;67.55;97317.38;5086272;28;20200;-66
2021/05/28 07:39:32;;;;;;;5.50;3.40;;;;;;;14.43;66.75;97314.38;5089940;28;20191;-64
2021/05/28 07:41:59;;;;;;;6.03;3.53;;;;;;;14.04;68.05;97316.00;5090122;28;20204;-64
2021/05/28 07:44:26;;;;;;;5.63;4.00;;;;;;;13.66;68.93;97326.31;5089811;28;20215;-64
2021/05/28 07:46:52;;;;;;;6.20;4.33;;;;;;;13.76;68.92;97317.84;5090722;28;20664;-62
2021/05/28 07:49:17;;;;;;;4.43;3.90;;;;;;;13.01;70.85;97318.56;5089176;28;20264;-63
2021/05/28 07:51:43;;;;;;;5.63;3.80;;;;;;;13.20;70.87;97321.94;5090681;28;20172;-63
2021/05/28 07:54:09;;;;;;;3.80;3.30;;;;;;;13.66;70.34;97324.50;5089860;28;20176;-64
2021/05/28 07:56:35;;;;;;;4.50;3.23;;;;;;;14.46;68.24;97323.66;5090438;28;20569;-65
2021/05/28 07:59:01;;;;;;;3.70;3.30;;;;;;;14.97;65.27;97320.81;5098458;28;20241;-65
2021/05/28 08:01:30;;;;;;;3.93;3.33;;;;;;;14.87;64.91;97325.13;5107646;28;20628;-64
2021/05/28 08:03:56;;;;;;;4.20;3.47;;;;;;;15.35;63.77;97327.16;5096331;28;20219;-64
2021/05/28 08:06:23;;;;;;;4.18;3.33;;;;;;;15.32;63.07;97325.00;5091310;28;20295;-64
2021/05/28 08:08:48;;;;;;;3.97;3.60;;;;;;;14.78;64.17;97327.34;5099015;28;20173;-64
2021/05/28 08:11:14;;;;;;;5.03;3.60;;;;;;;14.41;65.59;97321.72;5097975;28;20173;-64
2021/05/28 08:13:39;;;;;;;3.50;3.20;;;;;;;14.67;64.79;97322.94;5102776;28;20199;-64
2021/05/28 08:16:06;;;;;;;5.53;3.40;;;;;;;14.62;63.60;97325.50;5095767;28;21655;-67
2021/05/28 08:18:33;;;;;;;5.37;3.40;;;;;;;14.37;65.61;97327.72;5101290;28;20180;-65
2021/05/28 08:20:59;;;;;;;3.27;2.97;;;;;;;14.38;66.00;97330.09;5085707;28;20185;-66
2021/05/28 08:23:24;;;;;;;4.23;3.27;;;;;;;14.18;65.72;97326.28;5107703;28;20260;-64
2021/05/28 08:25:50;;;;;;;4.17;2.90;;;;;;;14.09;65.26;97323.22;5096768;28;20645;-66
2021/05/28 08:28:17;;;;;;;4.10;3.13;;;;;;;14.20;64.23;97329.50;5098182;28;20336;-65
2021/05/28 08:30:42;;;;;;;3.67;3.37;;;;;;;14.01;65.93;97326.22;5105732;28;20297;-64
2021/05/28 08:33:11;;;;;;;5.23;3.03;;;;;;;13.71;66.85;97327.22;5105203;28;20250;-65
2021/05/28 08:35:37;;;;;;;3.60;2.73;;;;;;;13.84;64.45;97328.81;5094873;28;20175;-64
2021/05/28 08:38:02;;;;;;;2.73;2.43;;;;;;;13.70;64.08;97320.38;5103776;28;20653;-65
2021/05/28 08:40:30;;;;;;;5.33;2.93;;;;;;;13.67;63.01;97326.09;5101838;28;20641;-65
2021/05/28 08:42:59;;;;;;;3.10;2.70;;;;;;;14.07;62.17;97318.19;5100692;28;20568;-65
2021/05/28 08:45:27;;;;;;;4.13;2.60;;;;;;;14.28;61.47;97323.81;5105514;28;20212;-63
2021/05/28 08:47:52;;;;;;;4.37;2.93;;;;;;;14.22;62.79;97322.94;5106477;28;20196;-64
2021/05/28 08:50:24;;;;;;;3.97;2.87;;;;;;;14.85;61.38;97320.09;5104562;28;20191;-63
2021/05/28 08:52:49;;;;;;;3.73;2.73;;;;;;;14.97;61.47;97318.16;5108687;28;20253;-65
2021/05/28 08:55:15;;;;;;;3.43;2.87;;;;;;;14.94;61.55;97318.63;5104907;28;20271;-65
2021/05/28 08:57:40;;;;;;;4.03;3.20;;;;;;;14.96;60.74;97316.56;5105828;28;20592;-63
2021/05/28 09:00:06;;;;;;;4.33;3.27;;;;;;;14.90;61.70;97309.59;5105556;28;20177;-66
2021/05/28 09:02:34;;;;;;;2.63;2.43;;;;;;;15.26;61.49;97310.94;5099497;28;20197;-65
2021/05/28 09:05:04;;;;;;;4.63;2.57;;;;;;;15.32;61.35;97315.22;5098572;28;20637;-64
2021/05/28 09:07:30;;;;;;;3.37;3.07;;;;;;;14.86;61.06;97319.06;5093872;28;20810;-66
2021/05/28 09:09:55;;;;;;;4.53;3.43;;;;;;;15.21;60.55;97310.84;5106531;28;20255;-65
2021/05/28 09:12:26;;;;;;;3.33;2.80;;;;;;;14.81;61.94;97326.91;5109447;28;20171;-65
2021/05/28 09:14:52;;;;;;;3.10;2.73;;;;;;;14.70;61.34;97321.69;5112337;28;20180;-64
2021/05/28 09:17:18;;;;;;;4.17;2.97;;;;;;;14.39;60.08;97325.63;5095046;28;20217;-65
2021/05/28 09:19:52;;;;;;;3.53;2.90;;;;;;;14.15;62.20;97327.56;5097578;28;20173;-65
2021/05/28 09:22:19;;;;;;;4.20;2.90;;;;;;;14.42;61.62;97330.44;5101733;28;20727;-64
2021/05/28 09:24:45;;;;;;;3.53;3.10;;;;;;;14.61;61.58;97325.75;5100257;28;20179;-65
2021/05/28 09:27:27;;;;;;;2.97;2.77;;;;;;;14.72;61.81;97325.66;5109732;28;20204;-66
2021/05/28 09:30:14;;;;;;;3.47;2.27;;;;;;;15.30;59.80;97319.97;5112543;28;20539;-65
2021/05/28 09:32:45;;;;;;;3.08;2.50;;;;;;;15.47;57.78;97327.84;5099274;28;20180;-64
2021/05/28 09:35:13;;;;;;;3.00;2.60;;;;;;;15.55;56.89;97332.72;5108806;28;20704;-67
2021/05/28 09:37:51;;;;;;;3.33;2.90;;;;;;;15.47;58.61;97324.41;5103060;28;20216;-66
2021/05/28 09:40:21;;;;;;;2.88;2.60;;;;;;;15.37;58.79;97325.09;5103934;28;20180;-64
2021/05/28 09:43:00;;;;;;;4.03;3.37;;;;;;;14.44;62.09;97331.00;5093960;28;20208;-64
2021/05/28 09:45:36;;;;;;;3.50;3.20;;;;;;;14.39;62.43;97326.44;5094140;28;20541;-63
2021/05/28 09:48:21;;;;;;;3.30;2.90;;;;;;;14.22;63.69;97330.03;5099339;28;20196;-65
2021/05/28 09:50:50;;;;;;;5.23;3.80;;;;;;;14.16;63.24;97329.13;5094260;28;20181;-64
2021/05/28 09:53:42;;;;;;;5.63;3.17;;;;;;;14.24;62.24;97326.13;5094461;28;20175;-64
2021/05/28 09:56:30;;;;;;;3.93;2.97;;;;;;;14.09;61.29;97329.31;5102348;28;20203;-62
2021/05/28 09:59:06;;;;;;;4.27;2.60;;;;;;;13.80;62.88;97314.50;5093500;28;20278;-62
2021/05/28 10:01:32;;;;;;;3.87;2.90;;;;;;;14.15;61.34;97317.03;5111974;28;20187;-63
2021/05/28 10:04:03;;;;;;;2.67;2.47;;;;;;;13.85;62.04;97313.78;5112784;28;20192;-63
2021/05/28 10:06:30;;;;;;;2.93;2.60;;;;;;;14.25;62.61;97327.75;5092984;28;20210;-63
2021/05/28 10:08:58;;;;;;;3.27;2.73;;;;;;;14.08;61.82;97319.78;5112429;28;20194;-63
2021/05/28 10:11:26;;;;;;;3.63;2.80;;;;;;;14.52;60.63;97323.50;5110970;28;20279;-63
2021/05/28 10:13:54;;;;;;;4.90;2.93;;;;;;;14.51;58.69;97327.19;5112877;28;20172;-63
2021/05/28 10:16:20;;;;;;;4.03;2.60;;;;;;;14.35;60.11;97324.47;5111280;28;20671;-63
2021/05/28 10:18:48;;;;;;;4.70;2.60;;;;;;;14.47;61.15;97330.53;5112802;28;20254;-65
2021/05/28 10:21:14;;;;;;;2.80;2.50;;;;;;;14.14;59.95;97318.84;5111314;28;20171;-63
2021/05/28 10:23:39;;;;;;;2.30;2.20;;;;;;;13.85;59.52;97311.16;5112271;28;20218;-63
2021/05/28 10:26:05;;;;;;;2.17;1.97;;;;;;;13.98;58.95;97310.91;5112141;28;20629;-64
2021/05/28 10:28:33;;;;;;;2.40;2.20;;;;;;;14.08;58.96;97316.34;5105804;28;20191;-63
2021/05/28 10:30:59;;;;;;;2.10;1.90;;;;;;;14.09;57.10;97315.31;5111480;28;20168;-63
2021/05/28 10:33:27;;;;;;;2.10;2.00;;;;;;;14.59;57.15;97309.38;5109186;28;20191;-63
2021/05/28 10:35:57;;;;;;;2.17;1.97;;;;;;;14.74;56.86;97310.41;5099443;28;20176;-63
2021/05/28 10:38:29;;;;;;;2.03;1.80;;;;;;;14.91;56.36;97307.78;5111503;28;20175;-63
2021/05/28 10:41:07;;;;;;;2.30;2.10;;;;;;;15.23;55.00;97314.06;5112044;28;20263;-63
2021/05/28 10:43:56;;;;;;;2.27;2.07;;;;;;;15.33;54.56;97313.38;5110888;28;20200;-63
2021/05/28 10:46:22;;;;;;;2.40;2.20;;;;;;;15.33;54.21;97306.25;5096454;28;20223;-63
2021/05/28 10:48:47;;;;;;;2.60;1.70;;;;;;;15.18;53.38;97305.25;5107795;28;20489;-63
2021/05/28 10:51:16;;;;;;;2.00;1.73;;;;;;;15.28;54.13;97300.09;5110677;28;20188;-63
2021/05/28 10:54:01;;;;;;;2.60;2.40;;;;;;;15.42;52.80;97306.66;5108131;28;20184;-63
2021/05/28 10:56:27;;;;;;;3.77;2.50;;;;;;;15.16;55.43;97312.59;5101063;28;20290;-63
2021/05/28 10:59:16;;;;;;;2.60;2.40;;;;;;;14.49;55.61;97310.78;5098500;28;20687;-62
2021/05/28 11:01:48;;;;;;;4.10;2.30;;;;;;;14.38;56.64;97316.13;5096697;28;20181;-63
2021/05/28 11:04:16;;;;;;;2.70;2.50;;;;;;;14.39;56.39;97309.81;5105249;28;20172;-62
2021/05/28 11:07:00;;;;;;;2.40;2.20;;;;;;;14.29;55.62;97301.69;5103961;28;20659;-62
2021/05/28 11:09:39;;;;;;;1.70;1.60;;;;;;;14.36;53.02;97291.81;5101696;28;20268;-62
2021/05/28 11:12:08;;;;;;;1.63;1.53;;;;;;;14.53;52.98;97298.75;5096136;28;20609;-62
2021/05/28 11:14:36;;;;;;;3.30;2.43;;;;;;;14.73;55.06;97305.38;5096874;28;20184;-62
2021/05/28 11:17:01;;;;;;;2.50;2.30;;;;;;;14.74;56.29;97291.13;5097175;28;20211;-65
2021/05/28 11:19:30;;;;;;;3.67;2.20;;;;;;;14.98;54.93;97292.56;5103547;28;20177;-62
2021/05/28 11:22:01;;;;;;;1.97;1.83;;;;;;;15.05;53.54;97295.03;5105603;28;20172;-62
2021/05/28 11:24:45;;;;;;;1.87;1.77;;;;;;;15.33;51.14;97286.97;5105017;28;20174;-62
2021/05/28 11:27:21;;;;;;;1.50;1.40;;;;;;;15.78;50.54;97278.84;5096711;28;20571;-61
2021/05/28 11:30:15;;;;;;;2.37;2.17;;;;;;;15.47;49.67;97282.94;5100980;28;20178;-63
2021/05/28 11:32:44;;;;;;;1.88;1.77;;;;;;;15.71;50.15;97286.97;5104375;28;20188;-64
2021/05/28 11:35:41;;;;;;;2.30;1.53;;;;;;;15.80;50.64;97274.13;5104539;28;20169;-63
2021/05/28 11:38:14;;;;;;;2.33;1.83;;;;;;;15.26;52.07;97287.16;5081509;28;20206;-63